Time;durP1;ratioP1;P1;durP2;ratioP2;P2;SDS_P1;SDS_P2;PMS_P1;PMS_P2;Temp;Humidity;BMP_temperature;BMP_pressure;BME280_temperature;BME280_humidity;BME280_pressure;Samples;Min_cycle;Max_cycle;Signal;HPM_P1;HPM_P2
2023/08/31 00:02:11;;;;;;;23.23;12.88;;;10.80;99.90;;;;;;5071316;28;20027;-85
2023/08/31 00:04:37;;;;;;;20.50;13.82;;;10.80;99.90;;;;;;5067171;28;20021;-85
2023/08/31 00:07:03;;;;;;;20.65;12.60;;;10.70;99.90;;;;;;5082072;28;20019;-85
2023/08/31 00:09:32;;;;;;;20.50;12.77;;;10.60;99.90;;;;;;5068984;28;20478;-85
2023/08/31 00:11:57;;;;;;;26.08;15.27;;;10.60;99.90;;;;;;5065851;28;20023;-85
2023/08/31 00:14:24;;;;;;;26.40;15.18;;;10.70;99.90;;;;;;5071047;28;20043;-86
2023/08/31 00:16:50;;;;;;;31.35;16.40;;;10.70;99.90;;;;;;5068445;28;20019;-85
2023/08/31 00:19:16;;;;;;;30.60;18.13;;;10.70;99.90;;;;;;5069284;28;20032;-85
2023/08/31 00:21:42;;;;;;;30.75;17.35;;;10.80;99.90;;;;;;5065570;28;20035;-86
2023/08/31 00:24:09;;;;;;;36.28;18.88;;;10.90;99.90;;;;;;5071536;28;20074;-85
2023/08/31 00:26:40;;;;;;;39.53;21.17;;;10.90;99.90;;;;;;5067021;28;20024;-85
2023/08/31 00:29:07;;;;;;;38.50;20.40;;;10.90;99.90;;;;;;5082147;28;20058;-85
2023/08/31 00:31:33;;;;;;;39.10;21.23;;;11.00;99.90;;;;;;5068631;28;20130;-85
2023/08/31 00:34:10;;;;;;;41.75;23.00;;;11.00;99.90;;;;;;5066435;28;20474;-85
2023/08/31 00:36:38;;;;;;;38.22;23.23;;;11.00;99.90;;;;;;5060533;28;20032;-85
2023/08/31 00:39:10;;;;;;;39.75;24.30;;;11.00;99.90;;;;;;5069804;28;20031;-85
2023/08/31 00:41:37;;;;;;;40.38;22.95;;;11.10;99.90;;;;;;5062121;28;20077;-85
2023/08/31 00:44:07;;;;;;;41.85;22.88;;;11.10;99.90;;;;;;5067060;28;20019;-85
2023/08/31 00:46:34;;;;;;;42.70;22.75;;;11.00;99.90;;;;;;5066058;28;20047;-86
2023/08/31 00:49:40;;;;;;;42.80;22.30;;;10.80;99.90;;;;;;5061437;28;20021;-86
2023/08/31 00:52:07;;;;;;;39.30;21.15;;;10.80;99.90;;;;;;5068271;27;20060;-86
2023/08/31 00:54:34;;;;;;;43.15;22.30;;;10.70;99.90;;;;;;5063479;28;20032;-86
2023/08/31 00:57:01;;;;;;;53.08;25.00;;;10.70;99.90;;;;;;5060301;28;20478;-85
2023/08/31 00:59:27;;;;;;;44.53;25.10;;;10.90;99.90;;;;;;5060222;28;20097;-85
2023/08/31 01:02:20;;;;;;;51.40;25.02;;;11.00;99.90;;;;;;5063418;28;20028;-85
2023/08/31 01:04:58;;;;;;;43.00;25.80;;;11.00;99.90;;;;;;5078424;28;20031;-86
2023/08/31 01:07:54;;;;;;;49.70;26.52;;;11.00;99.90;;;;;;5065828;28;20024;-86
2023/08/31 01:10:25;;;;;;;59.40;26.13;;;11.00;99.90;;;;;;5080628;28;20019;-86
2023/08/31 01:12:55;;;;;;;49.40;25.60;;;11.00;99.90;;;;;;5076030;28;20756;-86
2023/08/31 01:15:21;;;;;;;52.38;26.08;;;10.90;99.90;;;;;;5063072;28;20043;-85
2023/08/31 01:17:50;;;;;;;46.78;25.17;;;10.80;99.90;;;;;;5076837;28;20118;-86
2023/08/31 01:20:26;;;;;;;55.47;24.95;;;10.80;99.90;;;;;;5070852;28;20034;-86
2023/08/31 01:23:03;;;;;;;51.53;24.75;;;10.70;99.90;;;;;;5071543;28;20035;-85
2023/08/31 01:25:32;;;;;;;46.22;26.05;;;10.60;99.90;;;;;;5061768;28;20039;-86
2023/08/31 01:27:59;;;;;;;56.60;28.20;;;10.60;99.90;;;;;;5070955;28;20101;-86
2023/08/31 01:30:29;;;;;;;51.75;26.60;;;10.60;99.90;;;;;;5078854;28;20082;-85
2023/08/31 01:32:55;;;;;;;50.15;26.15;;;10.60;99.90;;;;;;5076501;28;20106;-85
2023/08/31 01:35:21;;;;;;;52.80;27.15;;;10.60;99.90;;;;;;5064564;28;20038;-85
2023/08/31 01:37:57;;;;;;;49.30;26.83;;;10.60;99.90;;;;;;5059136;28;20039;-85
2023/08/31 01:40:49;;;;;;;57.20;25.40;;;10.50;99.90;;;;;;5063174;28;20122;-86
2023/08/31 01:43:17;;;;;;;46.05;25.48;;;10.40;99.90;;;;;;5061671;28;20032;-86
2023/08/31 01:45:44;;;;;;;54.97;27.25;;;10.30;99.90;;;;;;5075596;28;20064;-85
2023/08/31 01:48:13;;;;;;;57.45;30.48;;;10.50;99.90;;;;;;5067944;28;20069;-85
2023/08/31 01:50:38;;;;;;;60.38;30.08;;;10.60;99.90;;;;;;5065091;28;20023;-85
2023/08/31 01:53:06;;;;;;;64.65;31.65;;;10.70;99.90;;;;;;5082196;28;20027;-85
2023/08/31 01:55:32;;;;;;;69.20;33.92;;;10.70;99.90;;;;;;5065750;28;20070;-86
2023/08/31 01:57:59;;;;;;;71.07;36.10;;;10.70;99.90;;;;;;5059305;28;20020;-85
2023/08/31 02:01:10;;;;;;;72.07;34.75;;;10.80;99.90;;;;;;5066951;28;20034;-85
2023/08/31 02:03:36;;;;;;;77.18;38.92;;;10.80;99.90;;;;;;5061444;28;20085;-86
2023/08/31 02:06:03;;;;;;;79.28;39.13;;;10.90;99.90;;;;;;5062670;28;20028;-86
2023/08/31 02:08:29;;;;;;;88.05;43.03;;;10.90;99.90;;;;;;5077867;28;20030;-85
2023/08/31 02:10:55;;;;;;;89.72;43.33;;;11.00;99.90;;;;;;5058909;28;20123;-85
2023/08/31 02:13:22;;;;;;;88.20;45.38;;;11.00;99.90;;;;;;5079313;28;20031;-85
2023/08/31 02:15:52;;;;;;;100.57;47.17;;;11.00;99.90;;;;;;5060610;28;20024;-86
2023/08/31 02:18:19;;;;;;;97.90;47.50;;;11.10;99.90;;;;;;5070688;28;20019;-86
2023/08/31 02:20:45;;;;;;;102.72;48.88;;;11.10;99.90;;;;;;5062997;28;20032;-85
2023/08/31 02:23:11;;;;;;;96.85;49.63;;;11.10;99.90;;;;;;5065265;28;20116;-85
2023/08/31 02:25:38;;;;;;;99.38;49.22;;;11.10;99.90;;;;;;5064186;28;20123;-85
2023/08/31 02:28:04;;;;;;;94.03;48.70;;;11.10;99.90;;;;;;5067601;28;20028;-85
2023/08/31 02:30:30;;;;;;;101.90;51.58;;;11.10;99.90;;;;;;5080783;28;20035;-86
2023/08/31 02:32:56;;;;;;;101.85;53.08;;;11.10;99.90;;;;;;5062377;28;20027;-85
2023/08/31 02:35:22;;;;;;;101.25;50.72;;;11.10;99.90;;;;;;5066498;28;20028;-85
2023/08/31 02:37:48;;;;;;;107.90;51.10;;;11.10;99.90;;;;;;5063353;28;20775;-86
2023/08/31 02:40:26;;;;;;;103.80;49.13;;;11.10;99.90;;;;;;5067386;28;20028;-85
2023/08/31 02:42:52;;;;;;;93.82;48.28;;;11.10;99.90;;;;;;5074474;28;20032;-85
2023/08/31 02:45:18;;;;;;;86.57;47.40;;;11.10;99.90;;;;;;5056127;28;20030;-86
2023/08/31 02:47:43;;;;;;;99.90;50.80;;;11.00;99.90;;;;;;5057739;28;20653;-85
2023/08/31 02:50:10;;;;;;;98.97;47.85;;;11.10;99.90;;;;;;5062966;28;20106;-85
2023/08/31 02:52:35;;;;;;;98.85;47.42;;;11.10;99.90;;;;;;5067649;28;20059;-86
2023/08/31 02:55:01;;;;;;;98.55;47.72;;;11.10;99.90;;;;;;5063341;28;20478;-85
2023/08/31 03:01:14;;;;;;;96.35;43.85;;;11.00;99.90;;;;;;5094279;28;20375;-85
2023/08/31 03:03:49;;;;;;;93.63;44.75;;;11.00;99.90;;;;;;5063710;28;20502;-86
2023/08/31 03:06:15;;;;;;;80.65;42.85;;;11.00;99.90;;;;;;5055157;28;20020;-86
2023/08/31 03:08:40;;;;;;;84.22;43.45;;;11.10;99.90;;;;;;5082064;28;20030;-86
2023/08/31 03:11:07;;;;;;;81.28;42.80;;;10.90;99.90;;;;;;5061475;28;20067;-85
2023/08/31 03:13:33;;;;;;;86.80;42.42;;;10.80;99.90;;;;;;5072352;28;20265;-86
2023/08/31 03:16:00;;;;;;;75.07;40.42;;;10.80;99.90;;;;;;5082889;28;20047;-85
2023/08/31 03:18:27;;;;;;;85.55;41.75;;;10.80;99.90;;;;;;5083171;28;20678;-86
2023/08/31 03:20:55;;;;;;;78.22;38.55;;;10.90;99.90;;;;;;5067659;28;20031;-85
2023/08/31 03:23:21;;;;;;;71.95;38.38;;;10.90;99.90;;;;;;5067880;28;20039;-85
2023/08/31 03:25:47;;;;;;;78.35;39.28;;;10.90;99.90;;;;;;5068486;28;20032;-86
2023/08/31 03:28:13;;;;;;;81.10;40.13;;;10.80;99.90;;;;;;5070185;28;20056;-85
2023/08/31 03:30:38;;;;;;;85.53;41.97;;;10.90;99.90;;;;;;5068321;28;20054;-85
2023/08/31 03:33:04;;;;;;;92.63;44.40;;;10.80;99.90;;;;;;5065239;28;20459;-85
2023/08/31 03:35:32;;;;;;;91.97;42.58;;;10.90;99.90;;;;;;5070916;28;20028;-86
2023/08/31 03:37:59;;;;;;;93.63;43.08;;;10.90;99.90;;;;;;5066802;28;20067;-85
2023/08/31 03:40:26;;;;;;;90.13;43.05;;;10.90;99.90;;;;;;5072248;28;20028;-86
2023/08/31 03:43:01;;;;;;;88.60;41.17;;;10.90;99.90;;;;;;5068041;28;20036;-86
2023/08/31 03:45:27;;;;;;;91.60;42.47;;;10.80;99.90;;;;;;5066055;28;20055;-85
2023/08/31 03:48:11;;;;;;;82.72;41.55;;;10.80;99.90;;;;;;5069428;28;20142;-85
2023/08/31 03:50:37;;;;;;;83.43;41.28;;;10.80;99.90;;;;;;5069351;28;20028;-86
2023/08/31 03:53:05;;;;;;;80.85;40.85;;;10.80;99.90;;;;;;5062558;28;20094;-85
2023/08/31 03:55:31;;;;;;;80.53;40.05;;;10.70;99.90;;;;;;5071342;28;20043;-85
2023/08/31 03:58:15;;;;;;;81.68;40.58;;;10.70;99.90;;;;;;5062904;28;20024;-85
2023/08/31 04:00:44;;;;;;;85.10;40.75;;;10.70;99.90;;;;;;5071658;28;20034;-85
2023/08/31 04:03:10;;;;;;;77.53;41.72;;;10.60;99.90;;;;;;5066964;28;20015;-85
2023/08/31 04:05:36;;;;;;;83.03;43.15;;;10.60;99.90;;;;;;5064619;28;20028;-85
2023/08/31 04:08:24;;;;;;;88.00;42.50;;;10.70;99.90;;;;;;5066328;28;20736;-85
2023/08/31 04:10:53;;;;;;;79.93;40.53;;;10.70;99.90;;;;;;5064292;28;20032;-85
2023/08/31 04:13:20;;;;;;;79.20;41.22;;;10.70;99.90;;;;;;5056258;28;20024;-85
2023/08/31 04:15:46;;;;;;;80.82;41.67;;;10.70;99.90;;;;;;5065199;28;20039;-85
2023/08/31 04:18:14;;;;;;;80.65;39.85;;;10.70;99.90;;;;;;5069172;28;20037;-85
2023/08/31 04:20:50;;;;;;;84.70;40.60;;;10.70;99.90;;;;;;5066304;28;20024;-86
2023/08/31 04:23:17;;;;;;;76.88;39.55;;;10.70;99.90;;;;;;5062807;28;20028;-85
2023/08/31 04:25:43;;;;;;;82.60;40.10;;;10.60;99.90;;;;;;5068127;28;20054;-86
2023/08/31 04:28:09;;;;;;;78.43;37.88;;;10.60;99.90;;;;;;5099779;28;20016;-85
2023/08/31 04:30:34;;;;;;;75.15;40.15;;;10.60;99.90;;;;;;5087281;28;20099;-85
2023/08/31 04:33:00;;;;;;;72.85;37.97;;;10.60;99.90;;;;;;5082524;28;20016;-85
2023/08/31 04:35:26;;;;;;;74.10;36.08;;;10.60;99.90;;;;;;5078883;28;20506;-85
2023/08/31 04:37:52;;;;;;;66.88;37.38;;;10.60;99.90;;;;;;5080287;28;20480;-86
2023/08/31 04:40:18;;;;;;;71.18;36.63;;;10.60;99.90;;;;;;5080419;28;20102;-86
2023/08/31 04:42:44;;;;;;;66.78;35.08;;;10.60;99.90;;;;;;5071017;28;20113;-87
2023/08/31 04:45:11;;;;;;;80.85;38.58;;;10.60;99.90;;;;;;5082526;28;20024;-86
2023/08/31 04:47:37;;;;;;;71.03;38.20;;;10.60;99.90;;;;;;5081617;28;20118;-86
2023/08/31 04:50:03;;;;;;;73.10;36.85;;;10.70;99.90;;;;;;5066195;28;20428;-86
2023/08/31 04:52:29;;;;;;;70.13;36.08;;;10.70;99.90;;;;;;5065615;28;20083;-86
2023/08/31 04:54:54;;;;;;;66.38;36.75;;;10.70;99.90;;;;;;5066976;28;20051;-86
2023/08/31 04:57:20;;;;;;;70.40;37.65;;;10.70;99.90;;;;;;5068755;28;20027;-86
2023/08/31 04:59:46;;;;;;;74.43;37.20;;;10.80;99.90;;;;;;5083847;28;20020;-87
2023/08/31 05:02:12;;;;;;;69.45;37.92;;;10.70;99.90;;;;;;5064274;28;20028;-86
2023/08/31 05:04:37;;;;;;;67.05;38.00;;;10.80;99.90;;;;;;5068516;28;20035;-87
2023/08/31 05:07:03;;;;;;;66.85;38.33;;;10.80;99.90;;;;;;5065016;28;20024;-86
2023/08/31 05:09:32;;;;;;;67.68;36.75;;;10.90;99.90;;;;;;5073675;28;20028;-86
2023/08/31 05:11:59;;;;;;;77.90;37.50;;;11.00;99.90;;;;;;5066192;28;20026;-87
2023/08/31 05:14:25;;;;;;;65.47;36.42;;;11.00;99.90;;;;;;5063266;28;20046;-86
2023/08/31 05:16:51;;;;;;;70.97;37.33;;;11.00;99.90;;;;;;5069610;28;20028;-86
2023/08/31 05:19:16;;;;;;;68.88;37.03;;;11.10;99.90;;;;;;5064461;28;20032;-86
2023/08/31 05:21:42;;;;;;;67.22;35.58;;;11.20;99.90;;;;;;5063364;28;20035;-86
2023/08/31 05:24:08;;;;;;;65.95;36.42;;;11.20;99.90;;;;;;5065565;28;20024;-86
2023/08/31 05:26:33;;;;;;;60.40;35.80;;;11.20;99.90;;;;;;5066197;28;20024;-86
2023/08/31 05:28:59;;;;;;;65.70;35.25;;;11.20;99.90;;;;;;5066098;28;20090;-87
2023/08/31 05:31:25;;;;;;;55.33;32.17;;;11.10;99.90;;;;;;5067888;28;20035;-86
2023/08/31 05:33:50;;;;;;;53.25;31.80;;;11.20;99.90;;;;;;5066358;28;20034;-86
2023/08/31 05:36:16;;;;;;;46.25;29.00;;;11.20;99.90;;;;;;5063151;28;20047;-86
2023/08/31 05:38:42;;;;;;;55.35;31.00;;;11.20;99.90;;;;;;5068529;28;20435;-86
2023/08/31 05:41:09;;;;;;;53.13;29.48;;;11.30;99.90;;;;;;5080343;28;20364;-86
2023/08/31 05:43:35;;;;;;;42.90;27.27;;;11.30;99.90;;;;;;5069363;28;20024;-86
2023/08/31 05:46:02;;;;;;;41.92;27.30;;;11.40;99.90;;;;;;5064952;28;20055;-86
2023/08/31 05:48:28;;;;;;;35.42;25.10;;;11.30;99.90;;;;;;5062114;28;20054;-86
2023/08/31 05:50:54;;;;;;;41.45;25.35;;;11.40;99.90;;;;;;5068941;28;20032;-86
2023/08/31 05:53:20;;;;;;;40.00;23.90;;;11.40;99.90;;;;;;5063203;28;20020;-86
2023/08/31 05:55:46;;;;;;;43.88;21.63;;;11.50;99.90;;;;;;5062258;28;20089;-86
2023/08/31 05:58:12;;;;;;;35.03;21.70;;;11.50;99.90;;;;;;5063892;28;20024;-86
2023/08/31 06:00:43;;;;;;;34.10;19.60;;;11.50;99.90;;;;;;5066477;28;20489;-85
2023/08/31 06:03:10;;;;;;;32.65;19.88;;;11.60;99.90;;;;;;5062520;28;20085;-86
2023/08/31 06:05:35;;;;;;;25.83;18.50;;;11.70;99.90;;;;;;5076413;28;20031;-86
2023/08/31 06:08:01;;;;;;;31.13;19.10;;;11.80;99.90;;;;;;5075611;28;20379;-86
2023/08/31 06:10:27;;;;;;;31.85;16.92;;;11.80;99.90;;;;;;5060286;28;20023;-86
2023/08/31 06:12:52;;;;;;;26.08;18.38;;;11.90;99.90;;;;;;5075544;28;20066;-86
2023/08/31 06:15:18;;;;;;;26.70;15.48;;;12.00;99.90;;;;;;5060056;28;20031;-86
2023/08/31 06:17:44;;;;;;;20.08;14.63;;;12.10;99.90;;;;;;5076778;28;20039;-86
2023/08/31 06:20:11;;;;;;;22.58;16.35;;;12.20;99.90;;;;;;5077066;28;20034;-86
2023/08/31 06:22:36;;;;;;;20.65;14.50;;;12.20;99.90;;;;;;5075865;28;20339;-86
2023/08/31 06:25:05;;;;;;;29.52;14.50;;;12.10;99.90;;;;;;5076841;28;20084;-85
2023/08/31 06:27:31;;;;;;;21.52;13.48;;;12.20;99.90;;;;;;5060317;28;20053;-86
2023/08/31 06:29:57;;;;;;;22.27;12.98;;;12.40;99.90;;;;;;5078261;28;20036;-86
2023/08/31 06:32:23;;;;;;;16.13;11.98;;;12.50;99.90;;;;;;5078965;28;20110;-86
2023/08/31 06:34:48;;;;;;;21.83;12.07;;;12.50;99.90;;;;;;5077176;28;20039;-86
2023/08/31 06:37:14;;;;;;;18.73;11.35;;;12.60;99.90;;;;;;5060749;28;20081;-86
2023/08/31 06:39:40;;;;;;;22.45;11.95;;;12.70;99.90;;;;;;5074878;28;20121;-85
2023/08/31 06:42:06;;;;;;;14.55;10.30;;;12.80;99.90;;;;;;5103055;28;20030;-86
2023/08/31 06:44:32;;;;;;;14.45;9.20;;;12.90;99.90;;;;;;5060102;28;20032;-86
2023/08/31 06:46:58;;;;;;;16.10;8.98;;;13.00;99.90;;;;;;5073645;28;20103;-86
2023/08/31 06:49:24;;;;;;;18.50;8.55;;;12.90;99.90;;;;;;5077152;28;20032;-86
2023/08/31 06:51:50;;;;;;;13.20;8.82;;;12.90;99.90;;;;;;5068548;28;20012;-86
2023/08/31 06:54:15;;;;;;;10.63;8.48;;;12.90;99.90;;;;;;5065562;28;20016;-86
2023/08/31 06:56:42;;;;;;;16.75;8.32;;;12.90;99.90;;;;;;5059233;28;20024;-86
2023/08/31 06:59:07;;;;;;;16.75;8.35;;;13.00;99.90;;;;;;5080847;28;20394;-86
2023/08/31 07:01:34;;;;;;;10.85;8.02;;;13.10;99.90;;;;;;5061926;28;20020;-86
2023/08/31 07:04:00;;;;;;;14.52;6.95;;;13.20;99.90;;;;;;5084226;28;20024;-86
2023/08/31 07:06:26;;;;;;;10.48;7.28;;;13.20;99.90;;;;;;5057277;28;20050;-85
2023/08/31 07:08:51;;;;;;;13.77;7.25;;;13.20;99.90;;;;;;5063362;28;20035;-87
2023/08/31 07:11:17;;;;;;;12.27;7.03;;;12.90;99.90;;;;;;5066136;28;20032;-86
2023/08/31 07:13:43;;;;;;;11.93;7.00;;;12.80;99.90;;;;;;5060128;28;20038;-86
2023/08/31 07:16:09;;;;;;;13.77;7.20;;;12.60;99.90;;;;;;5076450;28;20028;-86
2023/08/31 07:18:36;;;;;;;12.63;7.07;;;12.30;99.90;;;;;;5062159;28;20028;-86
2023/08/31 07:21:04;;;;;;;13.13;7.55;;;12.20;99.90;;;;;;5074672;28;20516;-86
2023/08/31 07:23:30;;;;;;;13.32;7.07;;;12.10;99.90;;;;;;5062480;28;20059;-86
2023/08/31 07:26:00;;;;;;;14.13;7.75;;;12.00;99.90;;;;;;5059476;28;20100;-86
2023/08/31 07:28:26;;;;;;;15.75;9.02;;;12.10;99.90;;;;;;5077467;28;20054;-86
2023/08/31 07:31:03;;;;;;;14.35;8.15;;;12.10;99.90;;;;;;5056095;28;20132;-86
2023/08/31 07:33:31;;;;;;;13.13;7.72;;;12.10;99.90;;;;;;5074727;28;20028;-86
2023/08/31 07:35:57;;;;;;;14.30;9.98;;;12.20;99.90;;;;;;5076702;28;20028;-87
2023/08/31 07:38:23;;;;;;;11.55;7.13;;;12.20;99.90;;;;;;5058878;28;20089;-86
2023/08/31 07:40:49;;;;;;;13.77;5.78;;;12.30;99.90;;;;;;5054176;28;20422;-86
2023/08/31 07:43:14;;;;;;;12.55;6.43;;;12.30;99.90;;;;;;5057204;28;20025;-86
2023/08/31 07:45:40;;;;;;;13.38;6.63;;;12.30;99.90;;;;;;5062079;28;20039;-86
2023/08/31 07:48:06;;;;;;;13.07;6.03;;;12.40;99.90;;;;;;5073778;28;20031;-87
2023/08/31 07:50:34;;;;;;;13.75;6.72;;;12.50;99.90;;;;;;5055087;28;20034;-86
2023/08/31 07:53:00;;;;;;;14.68;6.03;;;12.50;99.90;;;;;;5059004;28;20376;-87
2023/08/31 07:55:25;;;;;;;11.23;5.95;;;12.60;99.90;;;;;;5074764;28;20040;-86
2023/08/31 07:57:51;;;;;;;10.63;5.13;;;12.70;99.90;;;;;;5065483;28;20040;-87
2023/08/31 08:00:18;;;;;;;7.65;4.55;;;12.70;99.90;;;;;;5079878;28;20493;-86
2023/08/31 08:02:46;;;;;;;7.38;4.63;;;12.80;99.90;;;;;;5084307;28;20046;-87
2023/08/31 08:05:12;;;;;;;8.68;4.15;;;12.90;99.90;;;;;;5080729;28;20372;-86
2023/08/31 08:07:37;;;;;;;9.57;4.50;;;13.00;99.90;;;;;;5068190;28;20050;-86
2023/08/31 08:10:03;;;;;;;8.93;4.28;;;13.10;99.90;;;;;;5066362;28;20028;-86
2023/08/31 08:12:39;;;;;;;6.63;4.28;;;13.30;99.90;;;;;;5073686;28;20032;-86
2023/08/31 08:15:09;;;;;;;6.35;3.45;;;13.60;99.90;;;;;;5066391;28;20031;-86
2023/08/31 08:17:35;;;;;;;8.88;3.90;;;13.70;99.90;;;;;;5080616;28;20485;-87
2023/08/31 08:20:01;;;;;;;6.82;3.30;;;13.90;99.90;;;;;;5073411;28;20055;-87
2023/08/31 08:22:27;;;;;;;7.45;3.13;;;14.20;99.90;;;;;;5061109;28;20665;-85
2023/08/31 08:24:53;;;;;;;11.75;3.17;;;14.40;99.90;;;;;;5057206;28;20040;-88
2023/08/31 08:27:18;;;;;;;9.48;3.35;;;14.30;99.90;;;;;;5066189;28;20032;-86
2023/08/31 08:29:45;;;;;;;5.50;3.05;;;14.40;99.90;;;;;;5062822;28;20058;-85
2023/08/31 08:32:11;;;;;;;9.93;4.15;;;14.80;99.90;;;;;;5084030;28;20099;-88
2023/08/31 08:38:25;;;;;;;6.65;2.40;;;15.00;99.90;;;;;;5092002;28;20035;-87
2023/08/31 08:40:50;;;;;;;7.75;2.47;;;14.80;99.90;;;;;;5064606;28;20024;-88
2023/08/31 08:43:24;;;;;;;9.02;3.25;;;14.50;99.90;;;;;;5080547;28;20024;-86
2023/08/31 08:45:51;;;;;;;8.05;3.35;;;14.50;99.90;;;;;;5066366;28;20376;-87
2023/08/31 08:48:18;;;;;;;8.77;2.97;;;14.60;99.90;;;;;;5066884;28;20036;-88
2023/08/31 08:50:45;;;;;;;6.95;3.13;;;14.60;99.90;;;;;;5068309;28;20115;-87
2023/08/31 08:53:17;;;;;;;9.43;2.92;;;14.50;99.90;;;;;;5064569;28;20036;-86
2023/08/31 08:55:42;;;;;;;8.52;3.17;;;14.60;99.90;;;;;;5095371;28;20078;-87
2023/08/31 08:58:08;;;;;;;8.30;2.83;;;14.70;99.90;;;;;;5067898;28;20051;-88
2023/08/31 09:00:34;;;;;;;10.95;2.78;;;14.80;99.90;;;;;;5062487;28;20119;-86
2023/08/31 09:03:03;;;;;;;12.77;2.67;;;15.80;99.90;;;;;;5067996;28;20076;-87
2023/08/31 09:05:34;;;;;;;6.07;2.88;;;16.80;99.90;;;;;;5076852;28;20186;-87
2023/08/31 09:08:12;;;;;;;6.57;2.63;;;16.80;99.90;;;;;;5098469;28;20065;-87
2023/08/31 09:10:40;;;;;;;8.88;2.80;;;16.50;99.90;;;;;;5066049;28;20035;-89
2023/08/31 09:13:14;;;;;;;9.18;2.67;;;15.90;99.90;;;;;;5063998;28;20024;-88
2023/08/31 09:15:44;;;;;;;8.23;2.75;;;15.20;99.90;;;;;;5085434;28;20054;-86
2023/08/31 09:18:24;;;;;;;4.87;2.43;;;15.20;99.90;;;;;;5099645;28;20039;-87
2023/08/31 09:20:50;;;;;;;6.50;2.50;;;15.10;99.90;;;;;;5055015;28;20028;-87
2023/08/31 09:23:18;;;;;;;13.57;3.40;;;15.00;99.90;;;;;;5063499;28;20035;-86
2023/08/31 09:25:48;;;;;;;9.35;3.10;;;15.00;99.90;;;;;;5085135;28;20028;-87
2023/08/31 09:28:19;;;;;;;10.73;2.63;;;15.30;99.90;;;;;;5063227;28;20042;-87
2023/08/31 09:30:47;;;;;;;10.70;2.22;;;15.90;99.90;;;;;;5068987;28;20024;-87
2023/08/31 09:33:18;;;;;;;4.80;2.70;;;16.40;99.90;;;;;;5067107;28;20024;-87
2023/08/31 09:35:57;;;;;;;9.60;2.55;;;16.90;99.90;;;;;;5080989;28;20062;-86
2023/08/31 09:38:23;;;;;;;10.73;2.75;;;16.80;99.90;;;;;;5069535;28;20355;-88
2023/08/31 09:40:49;;;;;;;11.80;2.63;;;17.00;99.90;;;;;;5065904;28;20089;-87
2023/08/31 09:43:23;;;;;;;6.97;2.55;;;17.10;99.90;;;;;;5078134;28;20111;-87
2023/08/31 09:45:50;;;;;;;10.98;2.88;;;17.10;99.90;;;;;;5070188;28;20498;-86
2023/08/31 09:48:16;;;;;;;7.50;2.80;;;17.40;99.90;;;;;;5052707;28;20040;-88
2023/08/31 09:50:45;;;;;;;9.00;2.80;;;17.50;99.90;;;;;;5057124;28;20031;-89
2023/08/31 09:53:16;;;;;;;6.20;2.55;;;17.50;99.90;;;;;;5058453;28;20182;-87
2023/08/31 09:55:43;;;;;;;9.93;2.78;;;17.30;99.90;;;;;;5055486;28;20536;-87
2023/08/31 09:58:15;;;;;;;10.55;2.70;;;17.70;99.90;;;;;;5075189;28;20111;-87
2023/08/31 10:00:41;;;;;;;7.88;2.97;;;17.30;99.90;;;;;;5055023;28;20024;-88
2023/08/31 10:03:08;;;;;;;10.30;2.80;;;17.20;99.90;;;;;;5071019;28;20474;-87
2023/08/31 10:05:34;;;;;;;7.93;2.67;;;16.90;99.90;;;;;;5053296;28;20028;-87
2023/08/31 10:08:00;;;;;;;7.88;2.63;;;16.70;99.90;;;;;;5058600;28;20004;-87
2023/08/31 10:10:29;;;;;;;5.88;2.75;;;16.50;99.90;;;;;;5075446;28;20042;-88
2023/08/31 10:13:08;;;;;;;8.50;2.63;;;16.40;99.90;;;;;;5058795;28;20028;-88
2023/08/31 10:15:52;;;;;;;4.72;2.40;;;16.30;99.90;;;;;;5074927;28;20081;-87
2023/08/31 10:18:18;;;;;;;8.85;3.47;;;16.30;99.90;;;;;;5058304;28;20105;-88
2023/08/31 10:20:45;;;;;;;9.75;2.85;;;16.00;99.90;;;;;;5057625;28;20028;-87
2023/08/31 10:23:11;;;;;;;5.85;2.42;;;16.30;99.90;;;;;;5057800;28;20422;-87
2023/08/31 10:25:49;;;;;;;9.68;3.15;;;16.50;99.90;;;;;;5058977;28;20043;-87
2023/08/31 10:28:19;;;;;;;8.57;2.70;;;16.50;99.90;;;;;;5072350;28;20099;-88
2023/08/31 10:31:04;;;;;;;4.82;2.70;;;16.80;99.90;;;;;;5059025;28;20479;-87
2023/08/31 10:33:47;;;;;;;8.52;2.80;;;16.70;99.90;;;;;;5075331;28;20042;-87
2023/08/31 10:36:21;;;;;;;7.30;2.95;;;16.40;99.90;;;;;;5071957;28;20717;-86
2023/08/31 10:38:56;;;;;;;9.77;3.15;;;16.30;99.90;;;;;;5054966;28;20116;-87
2023/08/31 10:41:24;;;;;;;6.57;2.83;;;16.40;99.90;;;;;;5094496;28;20039;-88
2023/08/31 10:43:50;;;;;;;6.72;2.60;;;16.40;99.90;;;;;;5081585;28;20035;-87
2023/08/31 10:46:33;;;;;;;10.23;2.88;;;16.70;99.90;;;;;;5081397;28;20024;-87
2023/08/31 10:49:00;;;;;;;8.60;3.22;;;17.10;99.90;;;;;;5082372;28;20042;-88
2023/08/31 10:51:27;;;;;;;6.85;2.67;;;16.90;99.90;;;;;;5062515;28;20629;-87
2023/08/31 10:54:18;;;;;;;6.63;2.70;;;16.70;99.90;;;;;;5053370;28;20024;-88
2023/08/31 10:59:47;;;;;;;7.07;2.78;;;17.60;99.90;;;;;;5077990;28;20605;-88
2023/08/31 11:02:38;;;;;;;4.82;2.30;;;17.70;99.90;;;;;;5071448;28;20044;-87
2023/08/31 11:05:18;;;;;;;9.55;2.70;;;17.70;99.90;;;;;;5066626;28;20582;-87
2023/08/31 11:07:49;;;;;;;8.38;3.53;;;17.80;99.90;;;;;;5081514;28;20063;-88
2023/08/31 11:10:20;;;;;;;4.75;2.25;;;18.30;99.90;;;;;;5069848;28;20028;-87
2023/08/31 11:12:48;;;;;;;6.38;2.38;;;18.80;99.90;;;;;;5079532;28;20383;-87
2023/08/31 11:15:16;;;;;;;6.30;2.45;;;18.50;99.90;;;;;;5079224;28;20070;-87
2023/08/31 11:17:42;;;;;;;7.82;2.50;;;18.30;99.90;;;;;;5064623;28;20036;-88
2023/08/31 11:20:14;;;;;;;6.85;2.50;;;18.50;99.90;;;;;;5064649;28;20479;-88
2023/08/31 11:22:41;;;;;;;4.68;2.42;;;19.30;99.90;;;;;;5080275;28;20493;-87
2023/08/31 11:25:09;;;;;;;6.93;2.38;;;20.10;99.90;;;;;;5061569;28;20150;-88
2023/08/31 11:27:34;;;;;;;7.68;3.25;;;21.00;99.90;;;;;;5065823;28;20024;-88
2023/08/31 11:30:00;;;;;;;7.97;2.58;;;20.50;99.90;;;;;;5062246;28;20047;-88
2023/08/31 11:32:26;;;;;;;3.97;2.05;;;19.70;99.90;;;;;;5065629;28;20036;-89
2023/08/31 11:34:51;;;;;;;4.78;2.30;;;19.70;99.90;;;;;;5066818;28;20031;-87
2023/08/31 11:37:19;;;;;;;4.75;2.00;;;20.80;99.90;;;;;;5066689;28;20047;-89
2023/08/31 11:39:53;;;;;;;6.30;2.50;;;20.80;99.90;;;;;;5054604;28;20044;-88
2023/08/31 11:42:20;;;;;;;7.28;2.30;;;19.90;99.90;;;;;;5080846;28;20024;-88
2023/08/31 11:44:51;;;;;;;8.88;2.53;;;18.70;99.90;;;;;;5066728;28;20024;-87
2023/08/31 11:47:18;;;;;;;3.95;2.00;;;18.20;99.90;;;;;;5084665;28;20039;-88
2023/08/31 11:49:45;;;;;;;5.95;2.00;;;18.10;99.90;;;;;;5063535;28;20474;-90
2023/08/31 11:52:12;;;;;;;8.02;2.15;;;18.30;99.90;;;;;;5070538;28;20092;-88
2023/08/31 11:54:42;;;;;;;5.55;1.92;;;18.50;99.90;;;;;;5065809;28;20753;-88
2023/08/31 11:57:09;;;;;;;7.20;2.17;;;18.40;99.90;;;;;;5068313;28;20024;-88
2023/08/31 11:59:36;;;;;;;8.35;3.03;;;18.20;99.90;;;;;;5068183;28;20035;-87
2023/08/31 12:02:04;;;;;;;5.03;2.00;;;17.90;99.90;;;;;;5084612;28;20118;-88
2023/08/31 12:04:30;;;;;;;5.03;2.20;;;17.50;99.90;;;;;;5064889;28;20115;-88
2023/08/31 12:07:04;;;;;;;8.60;2.47;;;16.90;99.90;;;;;;5070567;28;20114;-88
2023/08/31 12:09:30;;;;;;;7.32;2.28;;;16.60;99.90;;;;;;5093939;28;20032;-88
2023/08/31 12:11:56;;;;;;;3.33;2.15;;;16.70;99.90;;;;;;5079648;28;20020;-89
2023/08/31 12:14:26;;;;;;;5.05;2.15;;;17.00;99.90;;;;;;5100066;28;20038;-87
2023/08/31 12:16:59;;;;;;;4.43;2.13;;;17.20;99.90;;;;;;5084711;28;20067;-88
2023/08/31 12:19:28;;;;;;;7.18;2.38;;;17.60;99.90;;;;;;5064505;28;20460;-87
2023/08/31 12:22:31;;;;;;;8.27;2.45;;;17.60;99.90;;;;;;5073546;28;20028;-88
2023/08/31 12:24:57;;;;;;;5.72;2.28;;;17.40;99.90;;;;;;5078820;28;20024;-87
2023/08/31 12:27:22;;;;;;;6.50;2.15;;;17.10;99.90;;;;;;5065623;28;20395;-88
2023/08/31 12:29:49;;;;;;;7.75;2.83;;;17.30;99.90;;;;;;5086556;28;20032;-87
2023/08/31 12:32:17;;;;;;;6.13;2.60;;;17.50;99.90;;;;;;5084855;28;20031;-88
2023/08/31 12:34:43;;;;;;;5.43;2.10;;;17.90;99.90;;;;;;5065969;28;20043;-88
2023/08/31 12:37:09;;;;;;;7.60;2.40;;;18.00;99.90;;;;;;5079762;28;20028;-87
2023/08/31 12:39:35;;;;;;;9.13;2.60;;;18.30;99.90;;;;;;5067276;28;20032;-88
2023/08/31 12:42:00;;;;;;;5.00;2.22;;;18.60;99.90;;;;;;5058190;28;20035;-88
2023/08/31 12:44:26;;;;;;;5.45;2.67;;;18.60;99.90;;;;;;5063739;28;20039;-88
2023/08/31 12:46:52;;;;;;;10.15;2.47;;;18.60;99.90;;;;;;5060566;28;20031;-88
2023/08/31 12:49:20;;;;;;;8.63;2.65;;;18.70;99.90;;;;;;5056080;28;20043;-89
2023/08/31 12:51:46;;;;;;;11.85;2.30;;;18.70;99.90;;;;;;5079558;28;20024;-88
2023/08/31 12:54:12;;;;;;;6.22;2.22;;;18.80;99.90;;;;;;5086450;28;20475;-87